sensor_id;sensor_type;location;lat;lon;timestamp;pressure;altitude;pressure_sealevel;temperature;humidity
70833;BME280;58452;59.418;17.962;2023-02-23T00:01:11;101600.78;;;-0.28;68.68
70833;BME280;58452;59.418;17.962;2023-02-23T00:03:37;101595.56;;;-0.24;68.28
70833;BME280;58452;59.418;17.962;2023-02-23T00:06:03;101607.50;;;-0.26;68.83
70833;BME280;58452;59.418;17.962;2023-02-23T00:08:28;101612.56;;;-0.26;68.82
70833;BME280;58452;59.418;17.962;2023-02-23T00:10:54;101598.06;;;-0.22;68.72
70833;BME280;58452;59.418;17.962;2023-02-23T00:13:22;101601.25;;;-0.17;68.84
70833;BME280;58452;59.418;17.962;2023-02-23T00:15:48;101592.41;;;-0.06;68.45
70833;BME280;58452;59.418;17.962;2023-02-23T00:18:13;101591.31;;;0.02;68.20
70833;BME280;58452;59.418;17.962;2023-02-23T00:20:39;101582.31;;;-0.07;68.66
70833;BME280;58452;59.418;17.962;2023-02-23T00:23:08;101572.84;;;-0.02;67.98
70833;BME280;58452;59.418;17.962;2023-02-23T00:25:36;101568.31;;;0.06;67.27
70833;BME280;58452;59.418;17.962;2023-02-23T00:28:03;101565.00;;;0.04;68.04
70833;BME280;58452;59.418;17.962;2023-02-23T00:30:31;101564.28;;;0.00;67.91
70833;BME280;58452;59.418;17.962;2023-02-23T00:32:58;101559.84;;;0.07;67.85
70833;BME280;58452;59.418;17.962;2023-02-23T00:35:24;101557.34;;;0.06;68.17
70833;BME280;58452;59.418;17.962;2023-02-23T00:37:49;101550.41;;;0.11;68.29
70833;BME280;58452;59.418;17.962;2023-02-23T00:40:16;101552.50;;;-0.01;68.46
70833;BME280;58452;59.418;17.962;2023-02-23T00:42:45;101554.97;;;0.01;68.65
70833;BME280;58452;59.418;17.962;2023-02-23T00:45:14;101547.50;;;-0.04;68.30
70833;BME280;58452;59.418;17.962;2023-02-23T00:47:42;101539.88;;;-0.04;67.99
70833;BME280;58452;59.418;17.962;2023-02-23T00:50:13;101545.06;;;-0.07;68.51
70833;BME280;58452;59.418;17.962;2023-02-23T00:52:42;101542.22;;;0.03;68.68
70833;BME280;58452;59.418;17.962;2023-02-23T00:55:10;101535.38;;;0.05;68.39
70833;BME280;58452;59.418;17.962;2023-02-23T00:57:36;101530.25;;;0.06;68.22
70833;BME280;58452;59.418;17.962;2023-02-23T01:00:06;101528.72;;;0.02;68.27
70833;BME280;58452;59.418;17.962;2023-02-23T01:02:38;101528.25;;;-0.09;69.42
70833;BME280;58452;59.418;17.962;2023-02-23T01:05:04;101527.66;;;-0.16;69.30
70833;BME280;58452;59.418;17.962;2023-02-23T01:07:30;101522.34;;;-0.10;68.37
70833;BME280;58452;59.418;17.962;2023-02-23T01:09:55;101514.34;;;0.01;68.55
70833;BME280;58452;59.418;17.962;2023-02-23T01:12:21;101517.06;;;-0.04;68.86
70833;BME280;58452;59.418;17.962;2023-02-23T01:14:46;101511.16;;;-0.27;69.11
70833;BME280;58452;59.418;17.962;2023-02-23T01:17:12;101511.13;;;-0.26;69.69
70833;BME280;58452;59.418;17.962;2023-02-23T01:19:37;101505.94;;;-0.23;69.95
70833;BME280;58452;59.418;17.962;2023-02-23T01:22:03;101507.63;;;-0.23;69.76
70833;BME280;58452;59.418;17.962;2023-02-23T01:24:29;101503.44;;;-0.24;70.12
70833;BME280;58452;59.418;17.962;2023-02-23T01:26:54;101500.97;;;-0.26;70.82
70833;BME280;58452;59.418;17.962;2023-02-23T01:29:20;101495.31;;;-0.11;69.76
70833;BME280;58452;59.418;17.962;2023-02-23T01:31:47;101502.84;;;-0.08;70.63
70833;BME280;58452;59.418;17.962;2023-02-23T01:34:13;101490.47;;;-0.17;70.71
70833;BME280;58452;59.418;17.962;2023-02-23T01:36:40;101496.03;;;-0.07;70.23
70833;BME280;58452;59.418;17.962;2023-02-23T01:39:09;101488.63;;;-0.12;71.92
70833;BME280;58452;59.418;17.962;2023-02-23T01:41:37;101480.44;;;-0.20;72.31
70833;BME280;58452;59.418;17.962;2023-02-23T01:45:07;101487.84;;;-0.14;71.99
70833;BME280;58452;59.418;17.962;2023-02-23T01:46:52;101480.03;;;-0.08;71.96
70833;BME280;58452;59.418;17.962;2023-02-23T01:49:28;101473.59;;;-0.18;73.16
70833;BME280;58452;59.418;17.962;2023-02-23T01:52:07;101475.16;;;-0.14;72.63
70833;BME280;58452;59.418;17.962;2023-02-23T01:54:40;101466.78;;;-0.16;73.41
70833;BME280;58452;59.418;17.962;2023-02-23T01:57:10;101465.56;;;-0.29;75.33
70833;BME280;58452;59.418;17.962;2023-02-23T01:59:42;101456.59;;;-0.37;76.06
70833;BME280;58452;59.418;17.962;2023-02-23T02:02:08;101459.28;;;-0.42;76.19
70833;BME280;58452;59.418;17.962;2023-02-23T02:04:36;101447.75;;;-0.27;77.02
70833;BME280;58452;59.418;17.962;2023-02-23T02:07:21;101455.63;;;-0.35;77.92
70833;BME280;58452;59.418;17.962;2023-02-23T02:09:48;101452.41;;;-0.40;77.99
70833;BME280;58452;59.418;17.962;2023-02-23T02:12:33;101443.63;;;-0.30;78.73
70833;BME280;58452;59.418;17.962;2023-02-23T02:14:59;101443.00;;;-0.36;78.96
70833;BME280;58452;59.418;17.962;2023-02-23T02:29:08;101425.75;;;-0.27;80.34
70833;BME280;58452;59.418;17.962;2023-02-23T02:40:02;101412.72;;;-0.18;81.37
70833;BME280;58452;59.418;17.962;2023-02-23T02:48:15;101387.84;;;-0.30;82.44
70833;BME280;58452;59.418;17.962;2023-02-23T02:50:53;101378.72;;;-0.35;82.54
70833;BME280;58452;59.418;17.962;2023-02-23T02:53:40;101374.25;;;-0.29;82.71
70833;BME280;58452;59.418;17.962;2023-02-23T02:56:10;101374.78;;;-0.21;82.84
70833;BME280;58452;59.418;17.962;2023-02-23T02:58:37;101373.69;;;-0.14;82.52
70833;BME280;58452;59.418;17.962;2023-02-23T03:01:13;101371.06;;;-0.34;82.64
70833;BME280;58452;59.418;17.962;2023-02-23T03:03:58;101363.69;;;-0.40;84.05
70833;BME280;58452;59.418;17.962;2023-02-23T03:06:47;101366.41;;;-0.44;83.51
70833;BME280;58452;59.418;17.962;2023-02-23T03:09:54;101369.84;;;-0.47;84.22
70833;BME280;58452;59.418;17.962;2023-02-23T03:13:00;101367.88;;;-0.39;84.97
70833;BME280;58452;59.418;17.962;2023-02-23T03:19:03;101353.03;;;-0.48;84.73
70833;BME280;58452;59.418;17.962;2023-02-23T03:21:56;101355.88;;;-0.34;84.65
70833;BME280;58452;59.418;17.962;2023-02-23T03:24:54;101352.41;;;-0.33;84.34
70833;BME280;58452;59.418;17.962;2023-02-23T03:28:02;101347.59;;;-0.39;84.88
70833;BME280;58452;59.418;17.962;2023-02-23T03:31:20;101343.06;;;-0.31;84.51
70833;BME280;58452;59.418;17.962;2023-02-23T03:34:29;101335.47;;;-0.31;84.43
70833;BME280;58452;59.418;17.962;2023-02-23T03:40:13;101328.97;;;-0.38;84.93
70833;BME280;58452;59.418;17.962;2023-02-23T03:43:00;101324.84;;;-0.40;85.32
70833;BME280;58452;59.418;17.962;2023-02-23T03:45:49;101321.38;;;-0.61;85.86
70833;BME280;58452;59.418;17.962;2023-02-23T03:48:35;101313.13;;;-0.66;85.75
70833;BME280;58452;59.418;17.962;2023-02-23T03:51:21;101317.19;;;-0.62;85.50
70833;BME280;58452;59.418;17.962;2023-02-23T03:54:15;101313.09;;;-0.43;85.69
70833;BME280;58452;59.418;17.962;2023-02-23T03:57:04;101310.44;;;-0.40;85.03
70833;BME280;58452;59.418;17.962;2023-02-23T03:59:58;101303.31;;;-0.30;84.33
70833;BME280;58452;59.418;17.962;2023-02-23T04:02:47;101302.19;;;-0.45;83.99
70833;BME280;58452;59.418;17.962;2023-02-23T04:05:35;101303.13;;;-0.47;85.03
70833;BME280;58452;59.418;17.962;2023-02-23T04:08:24;101294.16;;;-0.56;85.01
70833;BME280;58452;59.418;17.962;2023-02-23T04:11:38;101292.06;;;-0.45;85.18
70833;BME280;58452;59.418;17.962;2023-02-23T04:14:37;101294.75;;;-0.50;84.78
70833;BME280;58452;59.418;17.962;2023-02-23T04:17:04;101282.13;;;-0.51;84.89
70833;BME280;58452;59.418;17.962;2023-02-23T04:19:31;101293.47;;;-0.38;84.49
70833;BME280;58452;59.418;17.962;2023-02-23T04:21:56;101288.41;;;-0.38;83.92
70833;BME280;58452;59.418;17.962;2023-02-23T04:24:22;101280.66;;;-0.35;84.35
70833;BME280;58452;59.418;17.962;2023-02-23T04:26:47;101275.53;;;-0.33;84.58
70833;BME280;58452;59.418;17.962;2023-02-23T04:29:13;101278.13;;;-0.35;84.33
70833;BME280;58452;59.418;17.962;2023-02-23T04:31:39;101273.88;;;-0.34;84.86
70833;BME280;58452;59.418;17.962;2023-02-23T04:34:06;101273.88;;;-0.34;84.23
70833;BME280;58452;59.418;17.962;2023-02-23T04:36:32;101268.56;;;-0.28;83.82
70833;BME280;58452;59.418;17.962;2023-02-23T04:38:57;101256.84;;;-0.31;84.04
70833;BME280;58452;59.418;17.962;2023-02-23T04:41:23;101262.06;;;-0.14;83.87
70833;BME280;58452;59.418;17.962;2023-02-23T04:43:48;101260.94;;;-0.07;83.80
70833;BME280;58452;59.418;17.962;2023-02-23T04:46:14;101249.50;;;-0.37;84.33
70833;BME280;58452;59.418;17.962;2023-02-23T04:48:39;101252.47;;;-0.27;83.97
70833;BME280;58452;59.418;17.962;2023-02-23T04:51:05;101246.69;;;-0.31;84.97
70833;BME280;58452;59.418;17.962;2023-02-23T04:53:30;101241.38;;;-0.25;84.66
70833;BME280;58452;59.418;17.962;2023-02-23T04:55:56;101238.72;;;-0.22;84.45
70833;BME280;58452;59.418;17.962;2023-02-23T04:58:21;101235.69;;;-0.30;84.90
70833;BME280;58452;59.418;17.962;2023-02-23T05:00:47;101228.53;;;-0.42;84.87
70833;BME280;58452;59.418;17.962;2023-02-23T05:03:12;101229.19;;;-0.37;86.04
70833;BME280;58452;59.418;17.962;2023-02-23T05:05:38;101225.63;;;-0.33;84.95
70833;BME280;58452;59.418;17.962;2023-02-23T05:08:04;101226.00;;;-0.42;85.44
70833;BME280;58452;59.418;17.962;2023-02-23T05:10:29;101227.00;;;-0.46;85.77
70833;BME280;58452;59.418;17.962;2023-02-23T05:12:56;101223.09;;;-0.33;85.63
70833;BME280;58452;59.418;17.962;2023-02-23T05:15:21;101223.78;;;-0.50;85.09
70833;BME280;58452;59.418;17.962;2023-02-23T05:17:47;101216.88;;;-0.46;85.59
70833;BME280;58452;59.418;17.962;2023-02-23T05:20:13;101208.44;;;-0.46;85.74
70833;BME280;58452;59.418;17.962;2023-02-23T05:22:39;101210.91;;;-0.45;85.87
70833;BME280;58452;59.418;17.962;2023-02-23T05:25:05;101213.38;;;-0.43;86.48
70833;BME280;58452;59.418;17.962;2023-02-23T05:27:32;101205.34;;;-0.33;86.02
70833;BME280;58452;59.418;17.962;2023-02-23T05:29:58;101193.00;;;-0.40;86.13
70833;BME280;58452;59.418;17.962;2023-02-23T05:32:24;101197.72;;;-0.53;86.97
70833;BME280;58452;59.418;17.962;2023-02-23T05:34:49;101194.06;;;-0.46;86.98
70833;BME280;58452;59.418;17.962;2023-02-23T05:37:15;101183.63;;;-0.60;87.52
70833;BME280;58452;59.418;17.962;2023-02-23T05:39:40;101181.25;;;-0.43;86.77
70833;BME280;58452;59.418;17.962;2023-02-23T05:42:05;101178.00;;;-0.46;86.78
70833;BME280;58452;59.418;17.962;2023-02-23T05:44:31;101169.16;;;-0.36;86.63
70833;BME280;58452;59.418;17.962;2023-02-23T05:46:56;101170.34;;;-0.45;87.05
70833;BME280;58452;59.418;17.962;2023-02-23T05:49:22;101162.44;;;-0.37;86.63
70833;BME280;58452;59.418;17.962;2023-02-23T05:51:48;101166.38;;;-0.30;87.02
70833;BME280;58452;59.418;17.962;2023-02-23T05:54:13;101161.63;;;-0.38;86.78
70833;BME280;58452;59.418;17.962;2023-02-23T05:56:41;101150.78;;;-0.41;86.96
70833;BME280;58452;59.418;17.962;2023-02-23T05:59:06;101151.97;;;-0.50;88.06
70833;BME280;58452;59.418;17.962;2023-02-23T06:01:32;101144.44;;;-0.52;87.97
70833;BME280;58452;59.418;17.962;2023-02-23T06:03:58;101140.06;;;-0.48;88.08
70833;BME280;58452;59.418;17.962;2023-02-23T06:06:23;101138.28;;;-0.46;87.65
70833;BME280;58452;59.418;17.962;2023-02-23T06:08:50;101134.22;;;-0.50;87.68
70833;BME280;58452;59.418;17.962;2023-02-23T06:11:16;101141.94;;;-0.53;88.20
70833;BME280;58452;59.418;17.962;2023-02-23T06:13:42;101133.72;;;-0.38;88.64
70833;BME280;58452;59.418;17.962;2023-02-23T06:16:07;101130.09;;;-0.32;87.75
70833;BME280;58452;59.418;17.962;2023-02-23T06:18:33;101131.81;;;-0.33;87.60
70833;BME280;58452;59.418;17.962;2023-02-23T06:21:00;101115.28;;;-0.41;87.66
70833;BME280;58452;59.418;17.962;2023-02-23T06:23:29;101124.09;;;-0.30;87.93
70833;BME280;58452;59.418;17.962;2023-02-23T06:25:55;101122.19;;;-0.25;87.61
70833;BME280;58452;59.418;17.962;2023-02-23T06:28:22;101113.44;;;-0.18;87.17
70833;BME280;58452;59.418;17.962;2023-02-23T06:30:51;101111.03;;;-0.21;86.46
70833;BME280;58452;59.418;17.962;2023-02-23T06:33:16;101109.69;;;-0.29;87.13
70833;BME280;58452;59.418;17.962;2023-02-23T06:35:42;101112.16;;;-0.28;87.82
70833;BME280;58452;59.418;17.962;2023-02-23T06:38:08;101103.69;;;-0.27;86.82
70833;BME280;58452;59.418;17.962;2023-02-23T06:40:33;101098.59;;;-0.27;87.81
70833;BME280;58452;59.418;17.962;2023-02-23T06:42:59;101102.41;;;-0.17;86.83
70833;BME280;58452;59.418;17.962;2023-02-23T06:45:24;101102.81;;;-0.07;86.81
70833;BME280;58452;59.418;17.962;2023-02-23T06:47:50;101107.53;;;-0.18;87.01
70833;BME280;58452;59.418;17.962;2023-02-23T06:50:17;101095.69;;;-0.38;88.24
70833;BME280;58452;59.418;17.962;2023-02-23T06:52:43;101090.88;;;-0.24;88.16
70833;BME280;58452;59.418;17.962;2023-02-23T06:55:09;101090.22;;;-0.29;87.51
70833;BME280;58452;59.418;17.962;2023-02-23T06:57:35;101081.03;;;-0.31;87.72
70833;BME280;58452;59.418;17.962;2023-02-23T07:00:01;101084.66;;;-0.17;87.45
70833;BME280;58452;59.418;17.962;2023-02-23T07:02:26;101076.97;;;-0.15;86.83
70833;BME280;58452;59.418;17.962;2023-02-23T07:04:52;101077.69;;;-0.12;87.35
70833;BME280;58452;59.418;17.962;2023-02-23T07:07:17;101082.19;;;0.00;87.20
70833;BME280;58452;59.418;17.962;2023-02-23T07:09:43;101071.66;;;0.10;87.12
70833;BME280;58452;59.418;17.962;2023-02-23T07:12:10;101070.44;;;-0.01;86.34
70833;BME280;58452;59.418;17.962;2023-02-23T07:14:35;101071.66;;;0.10;86.34
70833;BME280;58452;59.418;17.962;2023-02-23T07:17:04;101068.22;;;-0.08;86.77
70833;BME280;58452;59.418;17.962;2023-02-23T07:19:31;101068.63;;;0.02;87.75
70833;BME280;58452;59.418;17.962;2023-02-23T07:21:56;101067.28;;;0.13;86.67
70833;BME280;58452;59.418;17.962;2023-02-23T07:24:22;101049.66;;;0.10;87.24
70833;BME280;58452;59.418;17.962;2023-02-23T07:26:47;101052.00;;;0.15;86.93
70833;BME280;58452;59.418;17.962;2023-02-23T07:29:14;101049.72;;;0.09;87.42
70833;BME280;58452;59.418;17.962;2023-02-23T07:31:40;101053.47;;;0.19;87.53
70833;BME280;58452;59.418;17.962;2023-02-23T07:34:06;101044.94;;;0.21;87.56
70833;BME280;58452;59.418;17.962;2023-02-23T07:36:31;101051.28;;;0.30;86.89
70833;BME280;58452;59.418;17.962;2023-02-23T07:38:57;101046.84;;;0.35;87.15
70833;BME280;58452;59.418;17.962;2023-02-23T07:41:23;101039.84;;;0.40;86.92
70833;BME280;58452;59.418;17.962;2023-02-23T07:43:49;101043.28;;;0.39;86.49
70833;BME280;58452;59.418;17.962;2023-02-23T07:46:14;101045.13;;;0.35;86.56
70833;BME280;58452;59.418;17.962;2023-02-23T07:48:41;101033.41;;;0.33;87.19
70833;BME280;58452;59.418;17.962;2023-02-23T07:51:10;101035.19;;;0.31;86.74
70833;BME280;58452;59.418;17.962;2023-02-23T07:53:37;101029.69;;;0.40;87.55
70833;BME280;58452;59.418;17.962;2023-02-23T07:56:03;101032.25;;;0.40;86.63
70833;BME280;58452;59.418;17.962;2023-02-23T07:58:29;101033.66;;;0.45;86.75
70833;BME280;58452;59.418;17.962;2023-02-23T08:00:57;101027.50;;;0.51;87.13
70833;BME280;58452;59.418;17.962;2023-02-23T08:03:23;101028.56;;;0.64;87.00
70833;BME280;58452;59.418;17.962;2023-02-23T08:05:48;101020.88;;;0.66;86.72
70833;BME280;58452;59.418;17.962;2023-02-23T08:08:14;101026.06;;;0.63;86.59
70833;BME280;58452;59.418;17.962;2023-02-23T08:10:39;101011.09;;;0.39;87.58
70833;BME280;58452;59.418;17.962;2023-02-23T08:13:05;101004.97;;;0.62;86.96
70833;BME280;58452;59.418;17.962;2023-02-23T08:15:30;100999.75;;;0.65;87.17
70833;BME280;58452;59.418;17.962;2023-02-23T08:17:56;101006.25;;;0.52;87.39
70833;BME280;58452;59.418;17.962;2023-02-23T08:20:22;101001.50;;;0.63;87.19
70833;BME280;58452;59.418;17.962;2023-02-23T08:22:52;100997.63;;;0.56;87.72
70833;BME280;58452;59.418;17.962;2023-02-23T08:25:18;100995.38;;;0.50;88.22
70833;BME280;58452;59.418;17.962;2023-02-23T08:27:44;100996.03;;;0.36;88.44
70833;BME280;58452;59.418;17.962;2023-02-23T08:30:11;100994.97;;;0.40;89.24
70833;BME280;58452;59.418;17.962;2023-02-23T08:32:38;100986.88;;;0.51;89.01
70833;BME280;58452;59.418;17.962;2023-02-23T08:35:04;100983.25;;;0.55;88.74
70833;BME280;58452;59.418;17.962;2023-02-23T08:37:31;100979.41;;;0.65;88.49
70833;BME280;58452;59.418;17.962;2023-02-23T08:39:57;100976.41;;;0.57;88.56
70833;BME280;58452;59.418;17.962;2023-02-23T08:42:23;100977.78;;;0.64;88.59
70833;BME280;58452;59.418;17.962;2023-02-23T08:44:48;100967.00;;;0.59;88.96
70833;BME280;58452;59.418;17.962;2023-02-23T08:47:15;100966.25;;;0.57;89.31
70833;BME280;58452;59.418;17.962;2023-02-23T08:49:46;100960.91;;;0.80;88.71
70833;BME280;58452;59.418;17.962;2023-02-23T08:52:11;100963.56;;;0.77;87.77
70833;BME280;58452;59.418;17.962;2023-02-23T08:54:36;100969.31;;;0.81;87.65
70833;BME280;58452;59.418;17.962;2023-02-23T08:57:02;100961.06;;;0.94;88.04
70833;BME280;58452;59.418;17.962;2023-02-23T08:59:27;100963.75;;;0.91;87.45
70833;BME280;58452;59.418;17.962;2023-02-23T09:01:53;100952.69;;;0.75;88.36
70833;BME280;58452;59.418;17.962;2023-02-23T09:04:18;100955.47;;;0.88;88.04
70833;BME280;58452;59.418;17.962;2023-02-23T09:06:45;100953.13;;;0.83;88.73
70833;BME280;58452;59.418;17.962;2023-02-23T09:09:12;100937.59;;;0.89;88.21
70833;BME280;58452;59.418;17.962;2023-02-23T09:11:37;100942.59;;;0.91;88.30
70833;BME280;58452;59.418;17.962;2023-02-23T09:14:03;100941.03;;;1.06;88.08
70833;BME280;58452;59.418;17.962;2023-02-23T09:16:28;100934.44;;;1.02;87.94
70833;BME280;58452;59.418;17.962;2023-02-23T09:18:53;100936.09;;;1.03;88.06
70833;BME280;58452;59.418;17.962;2023-02-23T09:21:20;100930.84;;;1.06;88.34
70833;BME280;58452;59.418;17.962;2023-02-23T09:23:50;100922.47;;;1.21;88.28
70833;BME280;58452;59.418;17.962;2023-02-23T09:26:17;100927.41;;;1.24;87.42
70833;BME280;58452;59.418;17.962;2023-02-23T09:28:43;100917.50;;;1.18;87.09
70833;BME280;58452;59.418;17.962;2023-02-23T09:31:11;100913.34;;;0.99;88.32
70833;BME280;58452;59.418;17.962;2023-02-23T09:33:37;100915.06;;;1.16;88.09
70833;BME280;58452;59.418;17.962;2023-02-23T09:36:10;100911.03;;;1.12;87.48
70833;BME280;58452;59.418;17.962;2023-02-23T09:38:48;100905.56;;;1.20;87.66
70833;BME280;58452;59.418;17.962;2023-02-23T09:41:29;100902.94;;;1.21;87.50
70833;BME280;58452;59.418;17.962;2023-02-23T09:47:01;100904.25;;;1.13;87.58
70833;BME280;58452;59.418;17.962;2023-02-23T09:49:32;100888.66;;;1.19;87.87
70833;BME280;58452;59.418;17.962;2023-02-23T09:52:00;100900.53;;;1.35;87.27
70833;BME280;58452;59.418;17.962;2023-02-23T09:54:31;100895.25;;;1.23;87.74
70833;BME280;58452;59.418;17.962;2023-02-23T09:57:01;100892.13;;;1.01;87.99
70833;BME280;58452;59.418;17.962;2023-02-23T09:59:28;100895.44;;;1.03;88.89
70833;BME280;58452;59.418;17.962;2023-02-23T10:04:51;100882.91;;;1.15;88.94
70833;BME280;58452;59.418;17.962;2023-02-23T10:07:23;100881.94;;;1.18;89.07
70833;BME280;58452;59.418;17.962;2023-02-23T10:12:28;100874.78;;;1.57;86.99
70833;BME280;58452;59.418;17.962;2023-02-23T10:17:32;100868.72;;;1.60;86.59
70833;BME280;58452;59.418;17.962;2023-02-23T10:20:12;100853.47;;;1.75;86.55
70833;BME280;58452;59.418;17.962;2023-02-23T10:22:43;100860.44;;;1.56;85.81
70833;BME280;58452;59.418;17.962;2023-02-23T10:25:19;100845.59;;;1.64;86.31
70833;BME280;58452;59.418;17.962;2023-02-23T10:27:48;100850.00;;;1.76;85.39
70833;BME280;58452;59.418;17.962;2023-02-23T10:30:20;100845.06;;;1.89;84.87
70833;BME280;58452;59.418;17.962;2023-02-23T10:35:28;100831.63;;;1.71;85.72
70833;BME280;58452;59.418;17.962;2023-02-23T10:37:55;100832.59;;;1.84;85.11
70833;BME280;58452;59.418;17.962;2023-02-23T10:40:23;100830.81;;;1.86;85.02
70833;BME280;58452;59.418;17.962;2023-02-23T10:42:50;100825.53;;;1.89;83.97
70833;BME280;58452;59.418;17.962;2023-02-23T10:45:19;100825.78;;;1.69;85.27
70833;BME280;58452;59.418;17.962;2023-02-23T10:50:18;100822.34;;;1.70;85.79
70833;BME280;58452;59.418;17.962;2023-02-23T10:52:48;100814.78;;;1.84;84.98
70833;BME280;58452;59.418;17.962;2023-02-23T10:55:29;100807.78;;;2.04;84.82
70833;BME280;58452;59.418;17.962;2023-02-23T10:58:09;100810.41;;;2.02;84.14
70833;BME280;58452;59.418;17.962;2023-02-23T11:00:38;100795.94;;;2.03;83.90
70833;BME280;58452;59.418;17.962;2023-02-23T11:03:17;100802.84;;;2.16;83.68
70833;BME280;58452;59.418;17.962;2023-02-23T11:05:47;100806.28;;;2.15;83.41
70833;BME280;58452;59.418;17.962;2023-02-23T11:08:31;100794.16;;;2.05;83.83
70833;BME280;58452;59.418;17.962;2023-02-23T11:13:33;100790.56;;;1.93;84.26
70833;BME280;58452;59.418;17.962;2023-02-23T11:16:20;100788.28;;;2.18;84.10
70833;BME280;58452;59.418;17.962;2023-02-23T11:18:59;100788.09;;;1.91;84.36
70833;BME280;58452;59.418;17.962;2023-02-23T11:21:30;100789.59;;;1.80;84.87
70833;BME280;58452;59.418;17.962;2023-02-23T11:24:22;100778.69;;;1.78;85.44
70833;BME280;58452;59.418;17.962;2023-02-23T11:26:51;100777.59;;;1.98;85.04
70833;BME280;58452;59.418;17.962;2023-02-23T11:31:48;100763.19;;;1.67;85.59
70833;BME280;58452;59.418;17.962;2023-02-23T11:34:32;100760.56;;;1.68;85.69
70833;BME280;58452;59.418;17.962;2023-02-23T11:37:03;100756.09;;;1.87;85.95
70833;BME280;58452;59.418;17.962;2023-02-23T11:39:29;100748.38;;;1.89;85.14
70833;BME280;58452;59.418;17.962;2023-02-23T11:42:15;100755.59;;;1.96;85.16
70833;BME280;58452;59.418;17.962;2023-02-23T11:44:41;100743.44;;;2.02;84.81
70833;BME280;58452;59.418;17.962;2023-02-23T11:47:15;100740.50;;;1.93;85.11
70833;BME280;58452;59.418;17.962;2023-02-23T11:49:44;100735.72;;;1.87;85.61
70833;BME280;58452;59.418;17.962;2023-02-23T11:52:21;100733.88;;;1.75;85.90
70833;BME280;58452;59.418;17.962;2023-02-23T11:55:11;100732.81;;;1.79;86.12
70833;BME280;58452;59.418;17.962;2023-02-23T11:57:40;100728.66;;;1.92;85.58
70833;BME280;58452;59.418;17.962;2023-02-23T12:00:11;100728.09;;;1.58;86.69
70833;BME280;58452;59.418;17.962;2023-02-23T12:02:50;100717.59;;;1.64;87.18
70833;BME280;58452;59.418;17.962;2023-02-23T12:05:37;100715.94;;;1.63;86.48
70833;BME280;58452;59.418;17.962;2023-02-23T12:08:19;100709.19;;;1.62;86.47
70833;BME280;58452;59.418;17.962;2023-02-23T12:10:57;100710.56;;;1.53;86.98
70833;BME280;58452;59.418;17.962;2023-02-23T12:16:27;100702.34;;;1.48;87.76
70833;BME280;58452;59.418;17.962;2023-02-23T12:19:24;100701.88;;;1.26;88.01
70833;BME280;58452;59.418;17.962;2023-02-23T12:22:02;100697.78;;;1.39;88.42
70833;BME280;58452;59.418;17.962;2023-02-23T12:27:18;100687.09;;;1.32;88.65
70833;BME280;58452;59.418;17.962;2023-02-23T12:35:26;100675.63;;;1.41;87.42
70833;BME280;58452;59.418;17.962;2023-02-23T12:38:11;100683.19;;;1.27;88.63
70833;BME280;58452;59.418;17.962;2023-02-23T12:40:39;100674.78;;;1.40;88.56
70833;BME280;58452;59.418;17.962;2023-02-23T12:45:52;100672.94;;;1.28;89.25
70833;BME280;58452;59.418;17.962;2023-02-23T12:50:51;100664.31;;;1.31;88.67
70833;BME280;58452;59.418;17.962;2023-02-23T12:58:29;100656.28;;;1.23;89.98
70833;BME280;58452;59.418;17.962;2023-02-23T13:01:26;100657.25;;;1.36;89.65
70833;BME280;58452;59.418;17.962;2023-02-23T13:14:56;100630.63;;;1.57;89.41
70833;BME280;58452;59.418;17.962;2023-02-23T13:17:47;100624.31;;;1.78;87.88
70833;BME280;58452;59.418;17.962;2023-02-23T13:20:32;100626.28;;;1.73;87.89
70833;BME280;58452;59.418;17.962;2023-02-23T13:23:09;100622.78;;;1.76;87.46
70833;BME280;58452;59.418;17.962;2023-02-23T13:28:17;100615.00;;;1.63;87.77
70833;BME280;58452;59.418;17.962;2023-02-23T13:30:44;100613.88;;;1.69;87.66
70833;BME280;58452;59.418;17.962;2023-02-23T13:33:27;100603.50;;;1.86;87.12
70833;BME280;58452;59.418;17.962;2023-02-23T13:36:02;100609.25;;;2.04;86.55
70833;BME280;58452;59.418;17.962;2023-02-23T13:41:40;100602.31;;;1.63;87.63
70833;BME280;58452;59.418;17.962;2023-02-23T13:44:26;100602.50;;;1.74;87.35
70833;BME280;58452;59.418;17.962;2023-02-23T13:47:14;100599.94;;;1.60;87.19
70833;BME280;58452;59.418;17.962;2023-02-23T13:52:21;100595.53;;;1.18;89.38
70833;BME280;58452;59.418;17.962;2023-02-23T13:54:53;100586.59;;;1.27;89.05
70833;BME280;58452;59.418;17.962;2023-02-23T13:57:22;100587.75;;;1.21;89.38
70833;BME280;58452;59.418;17.962;2023-02-23T13:59:48;100584.69;;;1.01;90.74
70833;BME280;58452;59.418;17.962;2023-02-23T14:02:32;100589.91;;;1.13;90.44
70833;BME280;58452;59.418;17.962;2023-02-23T14:05:40;100582.84;;;1.18;89.59
70833;BME280;58452;59.418;17.962;2023-02-23T14:08:04;100580.16;;;1.06;90.85
70833;BME280;58452;59.418;17.962;2023-02-23T14:10:37;100574.88;;;0.63;91.31
70833;BME280;58452;59.418;17.962;2023-02-23T14:18:28;100574.28;;;0.74;92.58
70833;BME280;58452;59.418;17.962;2023-02-23T14:25:51;100563.59;;;0.53;92.39
70833;BME280;58452;59.418;17.962;2023-02-23T14:28:34;100566.38;;;0.48;93.01
70833;BME280;58452;59.418;17.962;2023-02-23T14:31:02;100558.16;;;0.59;93.88
70833;BME280;58452;59.418;17.962;2023-02-23T14:36:02;100542.28;;;0.71;93.10
70833;BME280;58452;59.418;17.962;2023-02-23T14:41:23;100530.44;;;0.86;92.54
70833;BME280;58452;59.418;17.962;2023-02-23T14:43:59;100529.31;;;0.91;91.77
70833;BME280;58452;59.418;17.962;2023-02-23T14:46:30;100519.66;;;0.82;91.74
70833;BME280;58452;59.418;17.962;2023-02-23T14:49:04;100521.28;;;0.83;91.83
70833;BME280;58452;59.418;17.962;2023-02-23T14:51:43;100517.69;;;0.72;91.74
70833;BME280;58452;59.418;17.962;2023-02-23T14:54:33;100521.00;;;0.58;92.99
70833;BME280;58452;59.418;17.962;2023-02-23T14:57:02;100518.34;;;0.75;92.30